• Join FlightAware (Why Join?)
  • Login
  • US Flag 
12:23AM EDT


 

Airport Tracker/Info


-or-


 

Live Flight TrackerFlight Track Log ✈ N1078S ✈ 24-Jun-2013 ✈ KCGS - KCDW

Flight Track Log - Related Links

Times and Time Zones

All times are in EDT time to prevent confusion due to time zone crossing. See the N1078S flight status page for this flight to view local times or setup timezone preferences in your user account.

Time Position Orientation Groundspeed Altitude Reporting Facility
EDT Latitude Longitude Course Direction KTS MPH feet Rate Location/Type
05:35PM 39.0000 -76.9333 339° North 124 143 700  Level Potomac TRACON
05:36PM 39.0333 -76.9500 339° North 157 181 1,500 960 Climbing Potomac TRACON
05:37PM 39.0833 -76.9500 360° North 154 177 2,700 900 Climbing Potomac TRACON
05:38PM 39.1167 -76.9667 339° North 163 188 3,400 600 Climbing Potomac TRACON
05:39PM 39.1667 -76.9667 360° North 172 198 4,000 660 Climbing Potomac TRACON
05:40PM 39.2167 -76.9667 360° North 177 204 4,900 540 Climbing Potomac TRACON
05:41PM 39.2667 -76.9833 346° North 177 204 5,100 60 Climbing Potomac TRACON
05:42PM 39.3167 -76.9833 360° North 186 214 5,100  Level Potomac TRACON
05:43PM 39.3667 -76.9833 360° North 187 215 5,100  Level Potomac TRACON
05:44PM 39.4000 -76.9500 38° Northeast 202 232 5,100  Level Potomac TRACON
05:45PM 39.4167 -76.8833 72° East 202 232 5,100  Level Potomac TRACON
05:46PM 39.4500 -76.8000 63° Northeast 198 228 5,100  Level Potomac TRACON
05:47PM 39.4667 -76.7500 67° East 200 230 5,100  Level Potomac TRACON
05:48PM 39.5000 -76.6833 57° Northeast 195 224 5,100  Level Potomac TRACON
05:49PM 39.5167 -76.6167 72° East 198 228 5,100  Level Potomac TRACON
05:50PM 39.5500 -76.5500 57° Northeast 202 232 5,100  Level Potomac TRACON
05:51PM 39.5833 -76.4833 57° Northeast 196 226 5,100  Level Potomac TRACON
05:52PM 39.6000 -76.4167 72° East 200 230 5,100  Level Potomac TRACON
05:53PM 39.6333 -76.3667 49° Northeast 201 231 5,100  Level Potomac TRACON
05:55PM 39.7000 -76.2000 62° Northeast 207 238 5,100  Level Philadelphia TRACON
05:56PM 39.7333 -76.1333 57° Northeast 207 238 5,100  Level Philadelphia TRACON
05:57PM 39.7500 -76.0667 72° East 207 238 5,100  Level Philadelphia TRACON
05:58PM 39.7833 -76.0000 57° Northeast 205 236 5,100  Level Philadelphia TRACON
05:59PM 39.8000 -75.9500 67° East 199 229 5,100  Level Philadelphia TRACON
06:00PM 39.8333 -75.8833 57° Northeast 199 229 5,100  Level Philadelphia TRACON
06:01PM 39.8500 -75.8167 72° East 203 234 5,100  Level Philadelphia TRACON
06:02PM 39.8833 -75.7500 57° Northeast 202 232 5,100  Level Philadelphia TRACON
06:03PM 39.9167 -75.6833 57° Northeast 204 235 5,100  Level Philadelphia TRACON
06:04PM 39.9500 -75.6167 57° Northeast 203 234 5,100  Level Philadelphia TRACON
06:05PM 39.9833 -75.5667 49° Northeast 205 236 5,100  Level Philadelphia TRACON
06:06PM 40.0333 -75.5167 37° Northeast 200 230 5,100  Level Philadelphia TRACON
06:07PM 40.0667 -75.4667 49° Northeast 200 230 5,100  Level Philadelphia TRACON
06:08PM 40.1000 -75.4167 49° Northeast 199 229 5,100  Level Philadelphia TRACON
06:09PM 40.1333 -75.3667 49° Northeast 196 226 5,100  Level Philadelphia TRACON
06:10PM 40.1833 -75.3167 37° Northeast 194 223 5,100  Level Philadelphia TRACON
06:11PM 40.2167 -75.2500 57° Northeast 197 227 5,100 -60 Level Philadelphia TRACON
06:13PM 40.3000 -75.1500 42° Northeast 211 243 5,000 -180 Descending New York TRACON
06:14PM 40.3333 -75.1000 49° Northeast 206 237 4,600 -360 Descending New York TRACON
06:15PM 40.3667 -75.0500 49° Northeast 198 228 4,300 -240 Descending New York TRACON
06:16PM 40.4000 -74.9833 57° Northeast 192 221 4,200 -180 Descending New York TRACON
06:17PM 40.4167 -74.9167 72° East 191 220 4,000 -120 Descending New York TRACON
06:18PM 40.4333 -74.8500 72° East 195 224 4,000  Level New York TRACON
06:19PM 40.4667 -74.7833 57° Northeast 195 224 4,000  Level New York TRACON
06:20PM 40.4833 -74.7333 66° East 199 229 4,000  Level New York TRACON
06:21PM 40.5333 -74.6833 37° Northeast 200 230 4,000  Level New York TRACON
06:22PM 40.5667 -74.6333 49° Northeast 195 224 4,000  Level New York TRACON
06:23PM 40.6167 -74.5833 37° Northeast 207 238 4,000 -180 Level New York TRACON
06:24PM 40.6667 -74.5500 27° Northeast 191 220 3,700 -480 Descending New York TRACON
06:25PM 40.7167 -74.5167 27° Northeast 196 226 3,100 -300 Descending New York TRACON
06:26PM 40.7667 -74.5000 14° North 168 193 3,100  Level New York TRACON
06:27PM 40.8000 -74.5000 360° North 170 196 3,100  Level New York TRACON
06:28PM 40.8500 -74.5000 360° North 162 186 3,100  Level New York TRACON
06:29PM 40.9000 -74.4833 14° North 174 200 3,100 -240 Level New York TRACON
06:30PM 40.9000 -74.4167 90° East 168 193 2,700 -540 Descending New York TRACON
06:31PM 40.9167 -74.3667 66° East 163 188 2,100 -540 Descending New York TRACON
06:32PM 40.9167 -74.3167 90° East 141 162 1,700 -540 Descending New York TRACON
06:33PM 40.9000 -74.2667 114° Southeast 135 155 1,100 -600 Descending New York TRACON
06:35PM 40.8752 -74.2814 180° South  Level Estimated
06:42PM 40.8752 -74.2814 52° Northeast  Level Estimated
06:43PM 40.8752 -74.2814 52° Northeast  Level Estimated
06:44PM 40.8752 -74.2814 52° Northeast  Level Estimated
06:45PM 40.8752 -74.2814 52° Northeast  Level Estimated